createdAt,value
2022-08-08T00:01:08.023Z,9.43
2022-08-08T00:03:47.562Z,5.80
2022-08-08T00:06:28.249Z,5.05
2022-08-08T00:09:07.632Z,8.45
2022-08-08T00:11:47.184Z,5.95
2022-08-08T00:14:48.674Z,6.68
2022-08-08T00:17:23.139Z,4.82
2022-08-08T00:19:54.627Z,5.75
2022-08-08T00:22:26.387Z,9.43
2022-08-08T00:25:00.257Z,5.85
2022-08-08T00:27:32.966Z,5.75
2022-08-08T00:30:05.179Z,6.30
2022-08-08T00:32:36.492Z,6.85
2022-08-08T00:35:18.448Z,5.25
2022-08-08T00:38:01.805Z,5.60
2022-08-08T00:41:11.652Z,5.65
2022-08-08T00:43:55.959Z,5.82
2022-08-08T00:46:56.401Z,4.85
2022-08-08T00:49:39.329Z,10.90
2022-08-08T00:52:20.230Z,6.05
2022-08-08T00:55:02.134Z,4.47
2022-08-08T00:57:57.890Z,6.85
2022-08-08T01:00:27.480Z,11.45
2022-08-08T01:03:58.025Z,5.85
2022-08-08T01:06:16.345Z,5.43
2022-08-08T01:09:00.113Z,12.70
2022-08-08T01:11:44.586Z,8.43
2022-08-08T01:14:54.433Z,6.32
2022-08-08T01:17:35.073Z,5.70
2022-08-08T01:20:34.618Z,6.53
2022-08-08T01:24:05.930Z,6.05
2022-08-08T01:26:18.434Z,6.63
2022-08-08T01:29:00.905Z,7.60
2022-08-08T01:32:15.208Z,6.10
2022-08-08T01:34:51.183Z,6.05
2022-08-08T01:37:56.213Z,6.95
2022-08-08T01:40:28.033Z,5.97
2022-08-08T01:43:02.425Z,8.65
2022-08-08T01:45:45.952Z,5.05
2022-08-08T01:48:31.138Z,5.45
2022-08-08T01:51:48.645Z,4.53
2022-08-08T01:55:25.814Z,5.95
2022-08-08T01:57:04.341Z,6.85
2022-08-08T02:00:01.891Z,5.82
2022-08-08T02:02:41.420Z,5.03
2022-08-08T02:05:18.811Z,6.00
2022-08-08T02:07:59.074Z,5.50
2022-08-08T02:10:37.141Z,5.30
2022-08-08T02:13:52.341Z,10.07
2022-08-08T02:16:10.271Z,5.18
2022-08-08T02:18:58.712Z,7.38
2022-08-08T02:21:44.397Z,6.28
2022-08-08T02:24:19.758Z,5.53
2022-08-08T02:26:52.799Z,6.10
2022-08-08T02:29:46.774Z,7.22
2022-08-08T02:32:33.060Z,5.90
2022-08-08T02:35:13.694Z,6.85
2022-08-08T02:37:57.143Z,8.07
2022-08-08T02:40:34.615Z,6.38
2022-08-08T02:44:37.052Z,6.95
2022-08-08T02:46:27.440Z,5.65
2022-08-08T02:49:05.733Z,7.05
2022-08-08T02:51:56.732Z,9.35
2022-08-08T02:54:39.534Z,8.07
2022-08-08T02:57:23.951Z,5.82
2022-08-08T03:00:26.478Z,8.25
2022-08-08T03:03:08.900Z,5.53
2022-08-08T03:05:55.798Z,6.78
2022-08-08T03:08:35.564Z,6.22
2022-08-08T03:11:47.567Z,6.65
2022-08-08T03:16:01.577Z,6.18
2022-08-08T03:17:12.771Z,7.43
2022-08-08T03:20:03.675Z,8.52
2022-08-08T03:22:38.301Z,6.15
2022-08-08T03:25:18.138Z,6.03
2022-08-08T03:27:56.261Z,6.03
2022-08-08T03:30:25.585Z,7.28
2022-08-08T03:33:07.972Z,6.95
2022-08-08T03:36:00.377Z,6.80
2022-08-08T03:38:55.896Z,7.13
2022-08-08T03:42:27.393Z,7.07
2022-08-08T03:44:05.738Z,7.20
2022-08-08T03:46:44.082Z,6.68
2022-08-08T03:49:57.850Z,6.57
2022-08-08T03:52:06.680Z,6.80
2022-08-08T03:55:02.078Z,7.38
2022-08-08T03:58:33.577Z,7.80
2022-08-08T04:00:21.398Z,8.75
2022-08-08T04:02:57.867Z,8.27
2022-08-08T04:08:33.396Z,8.82
2022-08-08T04:11:11.255Z,7.30
2022-08-08T04:14:03.562Z,8.32
2022-08-08T04:16:40.649Z,7.30
2022-08-08T04:19:25.313Z,8.85
2022-08-08T04:21:59.362Z,7.88
2022-08-08T04:24:32.640Z,10.07
2022-08-08T04:27:03.521Z,8.85
2022-08-08T04:29:39.816Z,7.88
2022-08-08T04:32:30.514Z,10.25
2022-08-08T04:34:59.244Z,8.75
2022-08-08T04:37:34.410Z,7.03
2022-08-08T04:40:12.236Z,8.73
2022-08-08T04:42:57.192Z,9.10
2022-08-08T04:45:32.045Z,7.82
2022-08-08T04:48:02.293Z,10.20
2022-08-08T04:50:37.622Z,9.98
2022-08-08T04:53:51.917Z,11.63
2022-08-08T04:55:57.088Z,8.65
2022-08-08T04:58:28.473Z,10.38
2022-08-08T05:00:58.821Z,10.45
2022-08-08T05:04:09.598Z,8.70
2022-08-08T05:06:18.493Z,8.25
2022-08-08T05:08:55.813Z,12.95
2022-08-08T05:11:25.954Z,8.32
2022-08-08T05:14:01.435Z,7.97
2022-08-08T05:16:55.313Z,10.70
2022-08-08T05:20:10.666Z,9.07
2022-08-08T05:22:12.860Z,8.55
2022-08-08T05:24:48.154Z,6.55
2022-08-08T05:27:16.972Z,7.63
2022-08-08T05:29:45.745Z,8.00
2022-08-08T05:32:27.019Z,7.70
2022-08-08T05:34:59.255Z,9.23
2022-08-08T05:37:51.923Z,8.10
2022-08-08T05:40:28.376Z,8.38
2022-08-08T05:43:02.610Z,6.55
2022-08-08T05:45:43.077Z,7.63
2022-08-08T05:48:28.808Z,8.18
2022-08-08T05:51:14.544Z,16.70
2022-08-08T05:54:25.241Z,7.80
2022-08-08T05:56:37.450Z,8.07
2022-08-08T05:59:12.744Z,8.98
2022-08-08T06:01:52.691Z,10.70
2022-08-08T06:04:27.600Z,9.82
2022-08-08T06:07:01.897Z,7.80
2022-08-08T06:09:58.587Z,9.75
2022-08-08T06:12:29.612Z,9.27
2022-08-08T06:15:00.640Z,7.22
2022-08-08T06:17:50.409Z,8.85
2022-08-08T06:20:18.147Z,9.15
2022-08-08T06:22:49.256Z,9.45
2022-08-08T06:25:19.352Z,11.90
2022-08-08T06:28:12.786Z,7.10
2022-08-08T06:30:41.610Z,7.22
2022-08-08T06:33:11.515Z,6.78
2022-08-08T06:36:06.836Z,7.15
2022-08-08T06:38:35.896Z,8.38
2022-08-08T06:41:05.811Z,5.60
2022-08-08T06:43:35.720Z,5.50
2022-08-08T06:46:08.637Z,8.05
2022-08-08T06:48:38.926Z,7.70
2022-08-08T06:51:08.869Z,10.02
2022-08-08T06:53:51.022Z,6.18
2022-08-08T06:56:26.484Z,6.70
2022-08-08T06:58:55.060Z,5.65
2022-08-08T07:02:21.465Z,6.80
2022-08-08T07:04:39.645Z,10.98
2022-08-08T07:07:11.085Z,8.57
2022-08-08T07:09:56.538Z,6.28
2022-08-08T07:12:38.882Z,8.20
2022-08-08T07:15:23.466Z,5.78
2022-08-08T07:18:01.831Z,10.82
2022-08-08T07:20:50.855Z,7.88
2022-08-08T07:23:23.864Z,7.25
2022-08-08T07:25:56.994Z,8.45
2022-08-08T07:28:31.658Z,9.07
2022-08-08T07:31:05.139Z,9.07
2022-08-08T07:33:37.957Z,6.63
2022-08-08T07:36:23.002Z,17.02
2022-08-08T07:38:54.020Z,10.00
2022-08-08T07:41:25.252Z,13.07
2022-08-08T07:43:58.774Z,8.55
2022-08-08T07:46:30.957Z,8.35
2022-08-08T07:49:05.988Z,8.60
2022-08-08T07:51:45.517Z,8.32
2022-08-08T07:54:45.315Z,6.95
2022-08-08T07:57:22.360Z,7.28
2022-08-08T07:59:58.071Z,8.00
2022-08-08T08:02:34.596Z,8.18
2022-08-08T08:05:15.035Z,9.50
2022-08-08T08:07:46.024Z,7.70
2022-08-08T08:10:30.458Z,10.25
2022-08-08T08:13:20.438Z,8.00
2022-08-08T08:16:01.563Z,10.82
2022-08-08T08:18:38.755Z,10.10
2022-08-08T08:21:21.002Z,8.27
2022-08-08T08:24:10.849Z,7.28
2022-08-08T08:26:46.998Z,7.28
2022-08-08T08:29:22.725Z,10.88
2022-08-08T08:31:57.550Z,10.00
2022-08-08T08:34:32.624Z,8.05
2022-08-08T08:37:03.261Z,7.38
2022-08-08T08:39:59.690Z,7.93
2022-08-08T08:42:29.120Z,7.85
2022-08-08T08:45:20.770Z,7.90
2022-08-08T08:47:54.513Z,7.60
2022-08-08T08:50:33.851Z,9.20
2022-08-08T08:53:55.278Z,11.00
2022-08-08T08:56:02.042Z,6.65
2022-08-08T08:58:35.526Z,7.55
2022-08-08T09:01:10.242Z,6.88
2022-08-08T09:03:47.851Z,8.20
2022-08-08T09:06:33.227Z,8.77
2022-08-08T09:09:05.228Z,8.70
2022-08-08T09:11:46.947Z,6.82
2022-08-08T09:14:17.680Z,6.90
2022-08-08T09:16:47.704Z,13.95
2022-08-08T09:19:29.128Z,6.47
2022-08-08T09:22:06.669Z,8.13
2022-08-08T09:24:36.848Z,7.88
2022-08-08T09:27:20.082Z,7.22
2022-08-08T09:29:53.263Z,9.00
2022-08-08T09:32:34.892Z,8.35
2022-08-08T09:35:08.276Z,8.32
2022-08-08T09:38:01.298Z,8.50
2022-08-08T09:40:43.823Z,7.35
2022-08-08T09:43:40.641Z,6.60
2022-08-08T09:46:07.795Z,9.65
2022-08-08T09:48:42.915Z,7.18
2022-08-08T09:51:15.606Z,6.65
2022-08-08T09:53:59.659Z,8.57
2022-08-08T09:56:34.663Z,8.30
2022-08-08T09:59:40.517Z,8.63
2022-08-08T10:02:02.948Z,6.72
2022-08-08T10:04:47.510Z,6.60
2022-08-08T10:07:16.867Z,6.13
2022-08-08T10:10:00.433Z,7.13
2022-08-08T10:12:38.760Z,6.68
2022-08-08T10:15:22.162Z,11.95
2022-08-08T10:18:06.251Z,7.35
2022-08-08T10:20:51.497Z,6.78
2022-08-08T10:23:42.115Z,7.20
2022-08-08T10:26:26.042Z,7.90
2022-08-08T10:29:02.635Z,7.20
2022-08-08T10:31:46.920Z,5.55
2022-08-08T10:34:20.190Z,7.10
2022-08-08T10:36:49.179Z,6.80
2022-08-08T10:39:18.750Z,7.10
2022-08-08T10:41:58.854Z,9.20
2022-08-08T10:44:43.225Z,11.98
2022-08-08T10:47:11.676Z,7.85
2022-08-08T10:50:00.321Z,11.25
2022-08-08T10:52:31.552Z,8.25
2022-08-08T10:55:00.446Z,8.38
2022-08-08T10:57:45.377Z,7.13
2022-08-08T11:00:22.125Z,7.10
2022-08-08T11:02:50.402Z,6.68
2022-08-08T11:05:23.006Z,5.93
2022-08-08T11:08:30.563Z,6.50
2022-08-08T11:10:39.324Z,10.75
2022-08-08T11:16:00.806Z,7.03
2022-08-08T11:18:36.058Z,5.75
2022-08-08T11:21:08.881Z,5.75
2022-08-08T11:23:37.953Z,5.82
2022-08-08T11:26:06.634Z,6.35
2022-08-08T11:28:35.270Z,7.10
2022-08-08T11:31:09.432Z,5.32
2022-08-08T11:33:53.578Z,7.85
2022-08-08T11:36:29.434Z,6.90
2022-08-08T11:38:57.924Z,6.25
2022-08-08T11:41:27.723Z,6.80
2022-08-08T11:44:00.754Z,4.97
2022-08-08T11:46:30.474Z,7.38
2022-08-08T11:49:01.048Z,6.47
2022-08-08T11:51:39.910Z,7.78
2022-08-08T11:54:32.452Z,5.40
2022-08-08T11:57:14.196Z,4.38
2022-08-08T11:59:58.655Z,7.93
2022-08-08T12:02:46.914Z,4.47
2022-08-08T12:05:15.090Z,5.53
2022-08-08T12:07:51.060Z,5.28
2022-08-08T12:10:21.426Z,3.97
2022-08-08T12:12:49.785Z,3.63
2022-08-08T12:15:27.643Z,4.40
2022-08-08T12:17:55.248Z,5.43
2022-08-08T12:20:23.208Z,4.50
2022-08-08T12:22:53.255Z,3.42
2022-08-08T12:25:24.674Z,3.47
2022-08-08T12:28:14.348Z,3.83
2022-08-08T12:30:47.952Z,4.75
2022-08-08T12:33:18.722Z,4.28
2022-08-08T12:35:52.229Z,6.70
2022-08-08T12:38:31.323Z,3.20
2022-08-08T12:41:05.737Z,7.75
2022-08-08T12:43:59.565Z,4.55
2022-08-08T12:46:28.685Z,3.72
2022-08-08T12:49:21.886Z,3.33
2022-08-08T12:51:50.123Z,5.05
2022-08-08T12:54:28.907Z,3.58
2022-08-08T12:56:57.017Z,2.92
2022-08-08T12:59:36.695Z,8.00
2022-08-08T13:02:22.516Z,4.03
2022-08-08T13:04:57.857Z,3.30
2022-08-08T13:08:01.923Z,3.88
2022-08-08T13:10:31.677Z,3.08
2022-08-08T13:13:06.204Z,3.80
2022-08-08T13:15:36.628Z,3.65
2022-08-08T13:18:11.333Z,3.90
2022-08-08T13:20:45.052Z,3.00
2022-08-08T13:23:37.057Z,3.20
2022-08-08T13:26:13.314Z,2.72
2022-08-08T13:28:45.395Z,9.52
2022-08-08T13:31:16.171Z,6.63
2022-08-08T13:33:47.334Z,6.72
2022-08-08T13:36:17.649Z,2.95
2022-08-08T13:38:54.021Z,3.03
2022-08-08T13:41:23.896Z,3.20
2022-08-08T13:43:57.577Z,3.95
2022-08-08T13:46:26.500Z,3.80
2022-08-08T13:49:11.425Z,2.70
2022-08-08T13:51:53.065Z,4.45
2022-08-08T13:54:21.475Z,2.22
2022-08-08T13:57:00.053Z,2.50
2022-08-08T13:59:33.001Z,4.13
2022-08-08T14:02:07.295Z,5.40
2022-08-08T14:04:36.496Z,2.63
2022-08-08T14:07:05.182Z,5.35
2022-08-08T14:10:02.905Z,2.25
2022-08-08T14:12:26.738Z,2.38
2022-08-08T14:14:56.027Z,2.50
2022-08-08T14:17:36.420Z,2.85
2022-08-08T14:20:15.660Z,5.50
2022-08-08T14:23:10.570Z,4.60
2022-08-08T14:25:58.338Z,3.33
2022-08-08T14:28:29.922Z,4.28
2022-08-08T14:31:07.743Z,2.75
2022-08-08T14:33:37.246Z,2.92
2022-08-08T14:36:06.512Z,2.65
2022-08-08T14:38:52.839Z,2.78
2022-08-08T14:41:54.092Z,3.85
2022-08-08T14:44:20.990Z,3.22
2022-08-08T14:46:57.995Z,2.63
2022-08-08T14:49:51.585Z,5.07
2022-08-08T14:52:21.787Z,4.53
2022-08-08T14:54:50.145Z,6.50
2022-08-08T14:57:20.681Z,2.92
2022-08-08T15:00:09.709Z,5.13
2022-08-08T15:02:59.164Z,2.70
2022-08-08T15:05:33.954Z,2.38
2022-08-08T15:08:22.180Z,2.28
2022-08-08T15:10:59.638Z,2.90
2022-08-08T15:13:27.315Z,2.33
2022-08-08T15:16:12.125Z,1.60
2022-08-08T15:18:50.015Z,2.67
2022-08-08T15:21:19.542Z,1.67
2022-08-08T15:23:51.341Z,3.60
2022-08-08T15:26:19.531Z,2.45
2022-08-08T15:28:50.909Z,7.47
2022-08-08T15:31:54.014Z,5.68
2022-08-08T15:34:28.823Z,7.30
2022-08-08T15:36:57.598Z,2.08
2022-08-08T15:39:25.874Z,2.97
2022-08-08T15:41:53.618Z,2.72
2022-08-08T15:44:22.211Z,2.13
2022-08-08T15:46:51.313Z,2.17
2022-08-08T15:49:20.821Z,1.92
2022-08-08T15:51:49.901Z,3.40
2022-08-08T15:54:18.803Z,3.70
2022-08-08T15:57:07.566Z,2.42
2022-08-08T16:00:05.749Z,1.77
2022-08-08T16:02:31.478Z,2.92
2022-08-08T16:04:59.810Z,3.08
2022-08-08T16:07:50.701Z,2.05
2022-08-08T16:13:02.825Z,2.22
2022-08-08T16:13:30.903Z,2.35
2022-08-08T16:15:58.544Z,5.03
2022-08-08T16:18:34.501Z,10.27
2022-08-08T16:21:20.818Z,2.47
2022-08-08T16:23:55.840Z,4.93
2022-08-08T16:26:33.852Z,2.47
2022-08-08T16:29:03.230Z,2.03
2022-08-08T16:31:31.114Z,7.10
2022-08-08T16:34:00.881Z,2.97
2022-08-08T16:36:33.407Z,3.88
2022-08-08T16:39:17.078Z,2.90
2022-08-08T16:41:50.982Z,3.88
2022-08-08T16:44:28.048Z,3.38
2022-08-08T16:47:15.780Z,2.58
2022-08-08T16:49:44.735Z,2.78
2022-08-08T16:55:03.841Z,2.50
2022-08-08T16:55:42.943Z,3.38
2022-08-08T16:58:16.002Z,3.05
2022-08-08T17:00:42.231Z,3.40
2022-08-08T17:03:18.094Z,2.92
2022-08-08T17:05:56.269Z,2.83
2022-08-08T17:08:23.893Z,2.85
2022-08-08T17:10:58.041Z,2.85
2022-08-08T17:13:41.316Z,3.72
2022-08-08T17:16:25.993Z,2.70
2022-08-08T17:18:56.598Z,3.42
2022-08-08T17:21:27.255Z,8.07
2022-08-08T17:24:03.466Z,2.72
2022-08-08T17:26:34.216Z,2.45
2022-08-08T17:29:03.958Z,2.45
2022-08-08T17:31:44.953Z,2.55
2022-08-08T17:34:52.812Z,3.00
2022-08-08T17:37:06.754Z,3.08
2022-08-08T17:40:03.166Z,2.60
2022-08-08T17:42:27.510Z,3.28
2022-08-08T17:44:55.218Z,3.25
2022-08-08T17:47:40.534Z,3.10
2022-08-08T17:50:09.565Z,2.58
2022-08-08T17:52:39.086Z,2.60
2022-08-08T17:56:04.169Z,2.60
2022-08-08T17:57:59.337Z,2.90
2022-08-08T18:00:30.743Z,2.03
2022-08-08T18:03:07.380Z,3.25
2022-08-08T18:05:48.588Z,2.85
2022-08-08T18:08:25.198Z,3.15
2022-08-08T18:11:11.587Z,3.65
2022-08-08T18:13:41.419Z,2.60
2022-08-08T18:16:09.153Z,3.38
2022-08-08T18:18:42.403Z,2.28
2022-08-08T18:21:35.392Z,5.15
2022-08-08T18:23:59.667Z,2.33
2022-08-08T18:26:28.940Z,2.67
2022-08-08T18:28:57.715Z,2.10
2022-08-08T18:31:27.799Z,3.45
2022-08-08T18:34:12.204Z,2.58
2022-08-08T18:36:44.329Z,4.45
2022-08-08T18:39:27.263Z,3.17
2022-08-08T18:42:02.971Z,2.70
2022-08-08T18:44:33.110Z,2.47
2022-08-08T18:47:02.553Z,3.20
2022-08-08T18:49:32.307Z,2.00
2022-08-08T18:52:08.918Z,3.83
2022-08-08T18:54:59.792Z,4.65
2022-08-08T18:57:36.904Z,2.15
2022-08-08T19:00:15.424Z,2.97
2022-08-08T19:02:48.520Z,2.80
2022-08-08T19:05:32.444Z,2.85
2022-08-08T19:08:24.445Z,4.30
2022-08-08T19:10:57.629Z,5.00
2022-08-08T19:13:53.704Z,3.22
2022-08-08T19:16:18.362Z,5.30
2022-08-08T19:19:13.160Z,8.43
2022-08-08T19:21:48.633Z,2.85
2022-08-08T19:24:43.857Z,1.88
2022-08-08T19:27:07.553Z,2.60
2022-08-08T19:29:42.390Z,3.80
2022-08-08T19:32:19.597Z,2.83
2022-08-08T19:34:51.510Z,2.67
2022-08-08T19:37:43.075Z,2.45
2022-08-08T19:40:07.772Z,2.75
2022-08-08T19:42:44.046Z,2.40
2022-08-08T19:45:14.138Z,2.83
2022-08-08T19:48:01.317Z,3.47
2022-08-08T19:50:29.792Z,2.95
2022-08-08T19:52:59.860Z,2.63
2022-08-08T19:55:27.671Z,1.63
2022-08-08T19:58:03.929Z,3.92
2022-08-08T20:00:34.298Z,2.35
2022-08-08T20:03:14.954Z,3.38
2022-08-08T20:06:15.310Z,3.55
2022-08-08T20:08:40.274Z,3.03
2022-08-08T20:11:14.591Z,2.60
2022-08-08T20:14:31.783Z,2.83
2022-08-08T20:16:36.329Z,2.67
2022-08-08T20:19:07.007Z,8.00
2022-08-08T20:21:37.976Z,2.80
2022-08-08T20:24:06.164Z,2.65
2022-08-08T20:26:35.743Z,12.35
2022-08-08T20:29:08.691Z,2.65
2022-08-08T20:32:07.104Z,2.45
2022-08-08T20:34:29.944Z,3.00
2022-08-08T20:36:59.681Z,4.35
2022-08-08T20:39:39.412Z,5.35
2022-08-08T20:42:15.073Z,3.78
2022-08-08T20:44:44.583Z,3.78
2022-08-08T20:47:23.260Z,4.72
2022-08-08T20:49:54.370Z,5.05
2022-08-08T20:52:24.342Z,3.95
2022-08-08T20:54:51.932Z,3.30
2022-08-08T20:57:28.919Z,2.67
2022-08-08T20:59:59.008Z,3.30
2022-08-08T21:02:27.210Z,3.88
2022-08-08T21:04:57.448Z,3.83
2022-08-08T21:07:47.009Z,3.85
2022-08-08T21:10:18.069Z,4.32
2022-08-08T21:12:54.176Z,4.43
2022-08-08T21:16:05.879Z,3.80
2022-08-08T21:18:12.164Z,2.60
2022-08-08T21:20:42.053Z,5.32
2022-08-08T21:23:10.035Z,3.03
2022-08-08T21:25:41.815Z,2.92
2022-08-08T21:28:16.453Z,3.85
2022-08-08T21:30:58.267Z,2.85
2022-08-08T21:33:26.084Z,3.72
2022-08-08T21:36:16.798Z,4.63
2022-08-08T21:38:42.891Z,5.85
2022-08-08T21:41:10.817Z,5.40
2022-08-08T21:43:56.719Z,3.35
2022-08-08T21:48:07.423Z,3.13
2022-08-08T21:49:16.698Z,3.58
2022-08-08T21:54:18.674Z,2.88
2022-08-08T21:55:03.200Z,2.58
2022-08-08T21:57:20.483Z,3.40
2022-08-08T22:00:04.056Z,6.10
2022-08-08T22:02:42.572Z,6.15
2022-08-08T22:05:14.952Z,3.13
2022-08-08T22:07:48.269Z,3.35
2022-08-08T22:10:32.049Z,2.83
2022-08-08T22:13:17.896Z,3.45
2022-08-08T22:15:59.565Z,2.92
2022-08-08T22:18:30.045Z,3.70
2022-08-08T22:20:59.393Z,3.40
2022-08-08T22:23:29.896Z,13.65
2022-08-08T22:26:29.644Z,3.78
2022-08-08T22:29:14.755Z,3.35
2022-08-08T22:32:01.620Z,4.10
2022-08-08T22:34:32.657Z,3.85
2022-08-08T22:37:00.649Z,6.28
2022-08-08T22:39:45.749Z,3.40
2022-08-08T22:42:27.108Z,2.97
2022-08-08T22:44:56.027Z,6.45
2022-08-08T22:47:24.135Z,4.43
2022-08-08T22:50:03.543Z,3.63
2022-08-08T22:52:33.710Z,6.07
2022-08-08T22:55:05.507Z,6.45
2022-08-08T22:57:44.041Z,3.00
2022-08-08T23:00:17.100Z,2.95
2022-08-08T23:02:50.195Z,3.55
2022-08-08T23:05:21.531Z,3.30
2022-08-08T23:07:56.975Z,6.30
2022-08-08T23:10:26.652Z,4.13
2022-08-08T23:12:54.702Z,3.67
2022-08-08T23:16:41.744Z,7.53
2022-08-08T23:18:11.937Z,3.03
2022-08-08T23:20:43.207Z,3.20
2022-08-08T23:23:12.217Z,6.32
2022-08-08T23:25:47.872Z,4.07
2022-08-08T23:28:17.655Z,4.18
2022-08-08T23:30:45.989Z,3.72
2022-08-08T23:33:19.305Z,3.80
2022-08-08T23:36:07.024Z,5.88
2022-08-08T23:38:44.378Z,3.33
2022-08-08T23:41:24.642Z,2.90
2022-08-08T23:43:54.254Z,5.05
2022-08-08T23:49:02.872Z,4.80
2022-08-08T23:49:30.639Z,3.78
2022-08-08T23:52:06.885Z,4.05
2022-08-08T23:54:42.275Z,10.30
2022-08-08T23:57:27.478Z,3.78
